createdAt,value
2023-02-03T00:03:28.344Z,20.21
2023-02-03T00:08:31.303Z,20.22
2023-02-03T00:13:35.495Z,20.20
2023-02-03T00:18:39.149Z,20.21
2023-02-03T00:23:41.931Z,20.20
2023-02-03T00:28:46.034Z,20.25
2023-02-03T00:33:48.921Z,20.29
2023-02-03T00:38:53.646Z,20.26
2023-02-03T00:43:57.825Z,20.28
2023-02-03T00:49:00.651Z,20.27
2023-02-03T00:54:04.486Z,20.33
2023-02-03T00:59:08.685Z,20.36
2023-02-03T01:04:11.430Z,20.33
2023-02-03T01:09:14.413Z,20.32
2023-02-03T01:14:18.739Z,20.26
2023-02-03T01:19:21.569Z,20.26
2023-02-03T01:24:24.339Z,20.25
2023-02-03T01:29:28.665Z,20.27
2023-02-03T01:34:31.436Z,20.25
2023-02-03T01:39:35.164Z,20.25
2023-02-03T01:44:44.362Z,20.18
2023-02-03T01:49:49.745Z,20.26
2023-02-03T01:54:52.758Z,20.23
2023-02-03T01:59:57.093Z,20.24
2023-02-03T02:05:03.145Z,20.20
2023-02-03T02:10:06.591Z,20.20
2023-02-03T02:15:11.812Z,20.20
2023-02-03T02:20:45.845Z,20.18
2023-02-03T02:26:03.224Z,20.17
2023-02-03T02:31:41.878Z,20.16
2023-02-03T02:36:50.116Z,20.08
2023-02-03T02:41:56.938Z,20.14
2023-02-03T02:47:03.202Z,20.14
2023-02-03T02:52:06.750Z,20.14
2023-02-03T02:57:11.054Z,20.13
2023-02-03T03:02:15.424Z,20.12
2023-02-03T03:07:19.527Z,20.06
2023-02-03T03:12:23.620Z,20.09
2023-02-03T03:17:29.769Z,20.06
2023-02-03T03:22:34.761Z,20.07
2023-02-03T03:27:39.010Z,20.06
2023-02-03T03:32:43.141Z,20.00
2023-02-03T03:37:47.077Z,20.01
2023-02-03T03:42:51.692Z,19.94
2023-02-03T03:47:58.223Z,19.96
2023-02-03T03:53:01.513Z,19.92
2023-02-03T03:58:05.783Z,19.88
2023-02-03T04:03:12.829Z,19.88
2023-02-03T04:08:15.633Z,19.93
2023-02-03T04:13:20.437Z,19.95
2023-02-03T04:18:24.601Z,19.88
2023-02-03T04:23:27.535Z,19.89
2023-02-03T04:28:30.335Z,19.88
2023-02-03T04:33:34.491Z,19.84
2023-02-03T04:38:37.279Z,19.78
2023-02-03T04:43:40.077Z,19.71
2023-02-03T04:48:44.214Z,19.65
2023-02-03T04:53:46.989Z,19.57
2023-02-03T04:58:49.730Z,19.54
2023-02-03T05:03:53.831Z,19.48
2023-02-03T05:08:56.659Z,19.49
2023-02-03T05:13:59.455Z,19.44
2023-02-03T05:19:03.635Z,19.43
2023-02-03T05:24:08.028Z,19.40
2023-02-03T05:29:11.751Z,19.37
2023-02-03T05:34:15.905Z,19.33
2023-02-03T05:39:18.677Z,19.35
2023-02-03T05:44:21.842Z,19.31
2023-02-03T05:49:26.129Z,19.26
2023-02-03T05:54:29.001Z,19.22
2023-02-03T05:59:31.761Z,19.20
2023-02-03T06:04:35.914Z,19.15
2023-02-03T06:09:38.706Z,19.12
2023-02-03T06:14:41.711Z,19.08
2023-02-03T06:19:45.932Z,19.05
2023-02-03T06:24:49.053Z,19.00
2023-02-03T06:29:51.959Z,18.97
2023-02-03T06:34:56.133Z,18.94
2023-02-03T06:39:58.900Z,18.90
2023-02-03T06:45:01.706Z,18.86
2023-02-03T06:50:06.648Z,18.83
2023-02-03T06:55:09.775Z,18.80
2023-02-03T07:00:16.749Z,18.75
2023-02-03T07:05:22.351Z,18.75
2023-02-03T07:10:25.420Z,18.70
2023-02-03T07:15:28.383Z,18.68
2023-02-03T07:20:32.989Z,18.66
2023-02-03T07:25:35.904Z,18.61
2023-02-03T07:30:38.843Z,18.59
2023-02-03T07:35:43.280Z,18.56
2023-02-03T07:40:46.170Z,18.56
2023-02-03T07:45:49.217Z,18.50
2023-02-03T07:50:53.597Z,18.42
2023-02-03T07:55:56.423Z,18.40
2023-02-03T08:00:59.604Z,17.75
2023-02-03T08:06:03.833Z,17.10
2023-02-03T08:11:06.851Z,17.58
2023-02-03T08:16:09.731Z,17.89
2023-02-03T08:21:13.982Z,18.27
2023-02-03T08:26:17.166Z,18.55
2023-02-03T08:31:20.012Z,18.74
2023-02-03T08:36:24.303Z,18.85
2023-02-03T08:41:27.095Z,18.98
2023-02-03T08:46:30.048Z,19.09
2023-02-03T08:51:34.255Z,19.17
2023-02-03T08:56:36.992Z,19.20
2023-02-03T09:01:40.712Z,19.30
2023-02-03T09:06:44.907Z,19.36
2023-02-03T09:11:47.913Z,19.39
2023-02-03T09:16:50.774Z,19.45
2023-02-03T09:21:56.699Z,19.50
2023-02-03T09:27:00.998Z,19.54
2023-02-03T09:32:07.757Z,19.58
2023-02-03T09:37:11.958Z,19.58
2023-02-03T09:42:29.723Z,19.66
2023-02-03T09:47:35.289Z,19.67
2023-02-03T09:52:40.340Z,19.69
2023-02-03T09:57:45.253Z,19.67
2023-02-03T10:02:54.845Z,19.73
2023-02-03T10:08:03.585Z,19.73
2023-02-03T10:13:11.297Z,19.79
2023-02-03T10:18:14.963Z,19.84
2023-02-03T10:23:21.036Z,19.86
2023-02-03T10:28:25.610Z,19.87
2023-02-03T10:33:29.344Z,19.90
2023-02-03T10:38:44.932Z,19.91
2023-02-03T10:43:52.595Z,19.92
2023-02-03T10:48:55.512Z,19.91
2023-02-03T10:53:59.729Z,19.93
2023-02-03T10:59:02.589Z,19.95
2023-02-03T11:04:06.301Z,19.99
2023-02-03T11:09:25.127Z,20.03
2023-02-03T11:14:30.104Z,20.04
2023-02-03T11:19:33.131Z,20.07
2023-02-03T11:24:40.567Z,20.09
2023-02-03T11:29:44.458Z,20.13
2023-02-03T11:34:48.219Z,20.13
2023-02-03T11:39:52.376Z,20.16
2023-02-03T11:45:13.322Z,20.14
2023-02-03T11:50:22.322Z,20.15
2023-02-03T11:55:42.364Z,20.17
2023-02-03T12:00:48.565Z,20.12
2023-02-03T12:06:16.641Z,20.12
2023-02-03T12:11:26.520Z,20.11
2023-02-03T12:16:49.599Z,20.13
2023-02-03T12:21:53.484Z,20.13
2023-02-03T12:27:03.059Z,20.14
2023-02-03T12:32:08.594Z,20.11
2023-02-03T12:37:13.932Z,20.12
2023-02-03T12:42:20.009Z,20.14
2023-02-03T12:47:26.780Z,20.13
2023-02-03T12:52:32.459Z,20.17
2023-02-03T12:57:39.002Z,20.19
2023-02-03T13:02:46.670Z,20.17
2023-02-03T13:07:50.608Z,20.20
2023-02-03T13:12:57.176Z,20.22
2023-02-03T13:18:02.335Z,20.22
2023-02-03T13:23:06.960Z,20.23
2023-02-03T13:28:15.660Z,20.22
2023-02-03T13:34:00.695Z,20.22
2023-02-03T13:39:15.226Z,20.25
2023-02-03T13:44:20.433Z,20.29
2023-02-03T13:49:24.878Z,20.32
2023-02-03T13:54:29.949Z,20.35
2023-02-03T13:59:42.558Z,20.34
2023-02-03T14:04:55.049Z,20.35
2023-02-03T14:10:17.606Z,20.32
2023-02-03T14:15:39.414Z,20.29
2023-02-03T14:20:48.942Z,20.30
2023-02-03T14:25:54.045Z,20.32
2023-02-03T14:31:10.771Z,20.25
2023-02-03T14:36:28.461Z,20.20
2023-02-03T14:41:37.735Z,20.12
2023-02-03T14:46:47.550Z,20.10
2023-02-03T14:52:01.366Z,20.12
2023-02-03T14:57:18.329Z,20.17
2023-02-03T15:02:25.756Z,20.25
2023-02-03T15:07:38.996Z,20.24
2023-02-03T15:12:45.738Z,20.34
2023-02-03T15:17:50.009Z,20.47
2023-02-03T15:22:54.126Z,20.52
2023-02-03T15:28:10.799Z,20.58
2023-02-03T15:33:16.126Z,20.60
2023-02-03T15:38:20.875Z,20.68
2023-02-03T15:43:25.415Z,20.75
2023-02-03T15:48:34.166Z,20.80
2023-02-03T15:53:47.595Z,20.79
2023-02-03T15:58:50.899Z,20.87
2023-02-03T16:03:55.876Z,20.93
2023-02-03T16:08:59.537Z,20.99
2023-02-03T16:14:03.338Z,21.04
2023-02-03T16:19:13.273Z,21.08
2023-02-03T16:24:34.086Z,21.14
2023-02-03T16:29:54.767Z,21.18
2023-02-03T16:35:16.333Z,21.25
2023-02-03T16:40:38.517Z,21.25
2023-02-03T16:45:58.902Z,21.24
2023-02-03T16:51:05.118Z,21.15
2023-02-03T16:56:08.735Z,21.19
2023-02-03T17:01:11.716Z,21.20
2023-02-03T17:06:16.021Z,21.25
2023-02-03T17:11:20.349Z,21.37
2023-02-03T17:16:24.260Z,21.28
2023-02-03T17:21:29.427Z,21.32
2023-02-03T17:26:34.186Z,21.36
2023-02-03T17:31:37.088Z,21.34
2023-02-03T17:36:41.310Z,21.37
2023-02-03T17:57:47.086Z,21.46
2023-02-03T18:02:50.671Z,21.49
2023-02-03T18:07:54.798Z,21.48
2023-02-03T18:12:57.667Z,21.44
2023-02-03T18:18:00.549Z,21.45
2023-02-03T18:23:04.790Z,21.44
2023-02-03T18:28:07.585Z,21.45
2023-02-03T18:33:10.342Z,21.46
2023-02-03T18:38:14.741Z,21.45
2023-02-03T18:43:17.566Z,21.43
2023-02-03T18:48:20.371Z,21.44
2023-02-03T18:53:24.484Z,21.42
2023-02-03T18:58:27.338Z,21.46
2023-02-03T19:03:30.208Z,21.45
2023-02-03T19:08:34.427Z,21.44
2023-02-03T19:13:37.313Z,21.37
2023-02-03T19:18:40.105Z,21.42
2023-02-03T19:23:44.334Z,21.39
2023-02-03T19:28:47.292Z,21.36
2023-02-03T19:33:50.521Z,21.33
2023-02-03T19:38:54.699Z,21.38
2023-02-03T19:43:57.613Z,21.37
2023-02-03T19:49:00.425Z,21.38
2023-02-03T19:54:04.687Z,21.39
2023-02-03T19:59:07.679Z,21.43
2023-02-03T20:04:10.474Z,21.39
2023-02-03T20:09:14.698Z,21.32
2023-02-03T20:14:19.187Z,21.43
2023-02-03T20:19:22.229Z,21.38
2023-02-03T20:24:26.411Z,21.40
2023-02-03T20:29:29.257Z,21.38
2023-02-03T20:34:32.039Z,21.35
2023-02-03T20:39:36.244Z,21.31
2023-02-03T20:44:39.066Z,21.39
2023-02-03T20:49:41.913Z,21.39
2023-02-03T20:54:46.290Z,21.42
2023-02-03T20:59:49.233Z,21.24
2023-02-03T21:05:00.760Z,21.29
2023-02-03T21:10:11.737Z,21.30
2023-02-03T21:15:19.342Z,21.28
2023-02-03T21:20:25.662Z,21.10
2023-02-03T21:25:31.173Z,21.21
2023-02-03T21:30:35.067Z,21.07
2023-02-03T21:35:38.122Z,21.08
2023-02-03T21:40:42.268Z,20.96
2023-02-03T21:45:45.304Z,21.06
2023-02-03T21:50:48.154Z,21.16
2023-02-03T21:55:52.414Z,21.17
2023-02-03T22:00:55.732Z,21.00
2023-02-03T22:06:14.578Z,21.15
2023-02-03T22:11:19.490Z,21.22
2023-02-03T22:16:22.466Z,21.23
2023-02-03T22:21:25.282Z,21.23
2023-02-03T22:26:29.415Z,21.18
2023-02-03T22:31:32.346Z,21.20
2023-02-03T22:36:35.170Z,21.16
2023-02-03T22:41:39.312Z,21.13
2023-02-03T22:46:42.151Z,21.07
2023-02-03T22:51:44.904Z,20.97
2023-02-03T22:56:49.161Z,20.92
2023-02-03T23:01:52.206Z,20.95
2023-02-03T23:06:54.979Z,20.97
2023-02-03T23:11:59.208Z,20.96
2023-02-03T23:17:01.953Z,20.95
2023-02-03T23:22:04.774Z,20.97
2023-02-03T23:27:09.446Z,20.89
2023-02-03T23:32:12.209Z,20.92
2023-02-03T23:37:15.026Z,20.90
2023-02-03T23:42:19.220Z,20.87
2023-02-03T23:47:21.965Z,20.87
2023-02-03T23:52:24.824Z,20.91
2023-02-03T23:57:29.040Z,20.96
